sensor_id;sensor_type;location;lat;lon;timestamp;pressure;altitude;pressure_sealevel;temperature;humidity
46045;BME280;31781;54.094;13.428;2023-11-21T00:01:51;101142.34;;;7.60;73.90
46045;BME280;31781;54.094;13.428;2023-11-21T00:03:52;101142.34;;;7.60;73.75
46045;BME280;31781;54.094;13.428;2023-11-21T00:05:54;101143.38;;;7.59;73.84
46045;BME280;31781;54.094;13.428;2023-11-21T00:07:55;101151.50;;;7.59;73.82
46045;BME280;31781;54.094;13.428;2023-11-21T00:09:57;101147.94;;;7.59;73.49
46045;BME280;31781;54.094;13.428;2023-11-21T00:12:00;101156.06;;;7.59;73.48
46045;BME280;31781;54.094;13.428;2023-11-21T00:14:01;101162.31;;;7.59;73.40
46045;BME280;31781;54.094;13.428;2023-11-21T00:16:04;101150.84;;;7.57;73.13
46045;BME280;31781;54.094;13.428;2023-11-21T00:18:06;101153.56;;;7.57;73.80
46045;BME280;31781;54.094;13.428;2023-11-21T00:20:08;101152.69;;;7.57;73.51
46045;BME280;31781;54.094;13.428;2023-11-21T00:22:10;101158.13;;;7.57;73.66
46045;BME280;31781;54.094;13.428;2023-11-21T00:24:12;101160.81;;;7.57;73.07
46045;BME280;31781;54.094;13.428;2023-11-21T00:26:14;101156.44;;;7.56;73.70
46045;BME280;31781;54.094;13.428;2023-11-21T00:28:17;101163.69;;;7.55;73.21
46045;BME280;31781;54.094;13.428;2023-11-21T00:30:18;101158.28;;;7.55;73.54
46045;BME280;31781;54.094;13.428;2023-11-21T00:32:20;101164.72;;;7.54;73.32
46045;BME280;31781;54.094;13.428;2023-11-21T00:34:22;101162.00;;;7.54;73.47
46045;BME280;31781;54.094;13.428;2023-11-21T00:36:23;101162.00;;;7.54;73.71
46045;BME280;31781;54.094;13.428;2023-11-21T00:38:25;101159.31;;;7.54;73.10
46045;BME280;31781;54.094;13.428;2023-11-21T00:40:26;101166.59;;;7.54;73.14
46045;BME280;31781;54.094;13.428;2023-11-21T00:42:28;101171.19;;;7.53;72.90
46045;BME280;31781;54.094;13.428;2023-11-21T00:44:31;101183.88;;;7.53;72.79
46045;BME280;31781;54.094;13.428;2023-11-21T00:46:32;101178.63;;;7.51;72.35
46045;BME280;31781;54.094;13.428;2023-11-21T00:48:34;101175.06;;;7.51;72.79
46045;BME280;31781;54.094;13.428;2023-11-21T00:50:36;101181.31;;;7.51;73.05
46045;BME280;31781;54.094;13.428;2023-11-21T00:52:38;101186.94;;;7.50;72.60
46045;BME280;31781;54.094;13.428;2023-11-21T00:54:39;101184.22;;;7.50;72.37
46045;BME280;31781;54.094;13.428;2023-11-21T00:56:41;101188.59;;;7.51;72.84
46045;BME280;31781;54.094;13.428;2023-11-21T00:58:42;101184.22;;;7.50;72.76
46045;BME280;31781;54.094;13.428;2023-11-21T01:00:45;101189.66;;;7.50;72.56
46045;BME280;31781;54.094;13.428;2023-11-21T01:02:47;101195.06;;;7.50;72.14
46045;BME280;31781;54.094;13.428;2023-11-21T01:04:49;101197.78;;;7.50;71.66
46045;BME280;31781;54.094;13.428;2023-11-21T01:06:50;101203.50;;;7.47;72.16
46045;BME280;31781;54.094;13.428;2023-11-21T01:08:52;101212.47;;;7.47;72.30
46045;BME280;31781;54.094;13.428;2023-11-21T01:10:53;101208.94;;;7.47;72.23
46045;BME280;31781;54.094;13.428;2023-11-21T01:12:55;101213.53;;;7.46;72.11
46045;BME280;31781;54.094;13.428;2023-11-21T01:14:57;101210.13;;;7.44;71.94
46045;BME280;31781;54.094;13.428;2023-11-21T01:16:59;101218.25;;;7.44;72.29
46045;BME280;31781;54.094;13.428;2023-11-21T01:19:01;101214.69;;;7.44;72.44
46045;BME280;31781;54.094;13.428;2023-11-21T01:21:04;101219.28;;;7.43;72.37
46045;BME280;31781;54.094;13.428;2023-11-21T01:23:05;101218.44;;;7.43;72.13
46045;BME280;31781;54.094;13.428;2023-11-21T01:25:07;101213.84;;;7.43;72.18
46045;BME280;31781;54.094;13.428;2023-11-21T01:27:09;101214.91;;;7.42;72.24
46045;BME280;31781;54.094;13.428;2023-11-21T01:29:10;101217.78;;;7.41;72.38
46045;BME280;31781;54.094;13.428;2023-11-21T01:31:12;101220.47;;;7.41;72.43
46045;BME280;31781;54.094;13.428;2023-11-21T01:33:15;101220.63;;;7.39;72.45
46045;BME280;31781;54.094;13.428;2023-11-21T01:35:17;101227.25;;;7.37;72.36
46045;BME280;31781;54.094;13.428;2023-11-21T01:37:18;101223.72;;;7.36;72.17
46045;BME280;31781;54.094;13.428;2023-11-21T01:39:20;101218.66;;;7.33;72.10
46045;BME280;31781;54.094;13.428;2023-11-21T01:41:22;101223.06;;;7.34;71.50
46045;BME280;31781;54.094;13.428;2023-11-21T01:43:23;101221.34;;;7.33;71.51
46045;BME280;31781;54.094;13.428;2023-11-21T01:45:25;101225.06;;;7.32;71.46
46045;BME280;31781;54.094;13.428;2023-11-21T01:47:27;101222.38;;;7.32;71.50
46045;BME280;31781;54.094;13.428;2023-11-21T01:49:30;101233.19;;;7.32;72.05
46045;BME280;31781;54.094;13.428;2023-11-21T01:51:32;101226.13;;;7.31;71.71
46045;BME280;31781;54.094;13.428;2023-11-21T01:53:34;101236.94;;;7.31;72.21
46045;BME280;31781;54.094;13.428;2023-11-21T01:55:35;101241.50;;;7.30;72.04
46045;BME280;31781;54.094;13.428;2023-11-21T01:57:37;101244.22;;;7.30;72.07
46045;BME280;31781;54.094;13.428;2023-11-21T01:59:40;101247.09;;;7.29;71.90
46045;BME280;31781;54.094;13.428;2023-11-21T02:01:42;101244.38;;;7.29;71.94
46045;BME280;31781;54.094;13.428;2023-11-21T02:03:44;101250.63;;;7.29;72.57
46045;BME280;31781;54.094;13.428;2023-11-21T02:05:47;101247.09;;;7.29;71.90
46045;BME280;31781;54.094;13.428;2023-11-21T02:07:48;101249.13;;;7.27;72.17
46045;BME280;31781;54.094;13.428;2023-11-21T02:09:50;101251.66;;;7.28;72.09
46045;BME280;31781;54.094;13.428;2023-11-21T02:11:52;101258.91;;;7.28;71.79
46045;BME280;31781;54.094;13.428;2023-11-21T02:13:56;101256.22;;;7.28;71.50
46045;BME280;31781;54.094;13.428;2023-11-21T02:16:01;101251.84;;;7.27;71.45
46045;BME280;31781;54.094;13.428;2023-11-21T02:18:03;101250.81;;;7.28;71.77
46045;BME280;31781;54.094;13.428;2023-11-21T02:20:06;101248.28;;;7.26;71.38
46045;BME280;31781;54.094;13.428;2023-11-21T02:22:10;101252.69;;;7.27;72.19
46045;BME280;31781;54.094;13.428;2023-11-21T02:24:14;101255.41;;;7.27;72.20
46045;BME280;31781;54.094;13.428;2023-11-21T02:26:16;101255.41;;;7.27;71.88
46045;BME280;31781;54.094;13.428;2023-11-21T02:28:18;101258.09;;;7.27;71.61
46045;BME280;31781;54.094;13.428;2023-11-21T02:30:19;101257.25;;;7.27;71.71
46045;BME280;31781;54.094;13.428;2023-11-21T02:32:21;101263.53;;;7.27;71.78
46045;BME280;31781;54.094;13.428;2023-11-21T02:34:23;101259.97;;;7.27;71.86
46045;BME280;31781;54.094;13.428;2023-11-21T02:36:25;101265.38;;;7.27;71.56
46045;BME280;31781;54.094;13.428;2023-11-21T02:38:27;101268.94;;;7.27;71.65
46045;BME280;31781;54.094;13.428;2023-11-21T02:40:30;101268.09;;;7.27;71.81
46045;BME280;31781;54.094;13.428;2023-11-21T02:42:32;101271.81;;;7.26;71.79
46045;BME280;31781;54.094;13.428;2023-11-21T02:44:33;101278.06;;;7.26;71.58
46045;BME280;31781;54.094;13.428;2023-11-21T02:46:37;101276.22;;;7.27;72.53
46045;BME280;31781;54.094;13.428;2023-11-21T02:48:38;101278.06;;;7.26;72.33
46045;BME280;31781;54.094;13.428;2023-11-21T02:50:40;101277.88;;;7.28;72.68
46045;BME280;31781;54.094;13.428;2023-11-21T02:52:41;101272.66;;;7.26;72.63
46045;BME280;31781;54.094;13.428;2023-11-21T02:54:43;101281.44;;;7.28;72.76
46045;BME280;31781;54.094;13.428;2023-11-21T02:56:46;101285.81;;;7.29;72.09
46045;BME280;31781;54.094;13.428;2023-11-21T02:58:48;101284.97;;;7.29;72.52
46045;BME280;31781;54.094;13.428;2023-11-21T03:00:50;101286.69;;;7.30;72.71
46045;BME280;31781;54.094;13.428;2023-11-21T03:02:51;101294.78;;;7.30;72.48
46045;BME280;31781;54.094;13.428;2023-11-21T03:04:53;101293.78;;;7.31;73.09
46045;BME280;31781;54.094;13.428;2023-11-21T03:06:55;101287.69;;;7.29;72.43
46045;BME280;31781;54.094;13.428;2023-11-21T03:08:56;101293.78;;;7.31;72.11
46045;BME280;31781;54.094;13.428;2023-11-21T03:10:58;101294.78;;;7.30;72.15
46045;BME280;31781;54.094;13.428;2023-11-21T03:13:01;101301.06;;;7.30;72.15
46045;BME280;31781;54.094;13.428;2023-11-21T03:15:04;101303.75;;;7.30;71.59
46045;BME280;31781;54.094;13.428;2023-11-21T03:17:05;101306.28;;;7.32;71.38
46045;BME280;31781;54.094;13.428;2023-11-21T03:19:07;101305.47;;;7.31;71.23
46045;BME280;31781;54.094;13.428;2023-11-21T03:21:09;101305.47;;;7.31;70.69
46045;BME280;31781;54.094;13.428;2023-11-21T03:23:10;101307.13;;;7.32;70.07
46045;BME280;31781;54.094;13.428;2023-11-21T03:25:12;101320.66;;;7.32;69.99
46045;BME280;31781;54.094;13.428;2023-11-21T03:27:14;101311.69;;;7.32;69.47
46045;BME280;31781;54.094;13.428;2023-11-21T03:29:17;101317.97;;;7.32;70.06
46045;BME280;31781;54.094;13.428;2023-11-21T03:31:19;101313.59;;;7.31;69.32
46045;BME280;31781;54.094;13.428;2023-11-21T03:33:20;101319.81;;;7.32;69.14
46045;BME280;31781;54.094;13.428;2023-11-21T03:35:22;101324.41;;;7.31;68.65
46045;BME280;31781;54.094;13.428;2023-11-21T03:37:24;101322.72;;;7.30;68.24
46045;BME280;31781;54.094;13.428;2023-11-21T03:39:25;101330.84;;;7.30;68.33
46045;BME280;31781;54.094;13.428;2023-11-21T03:41:27;101335.41;;;7.30;68.39
46045;BME280;31781;54.094;13.428;2023-11-21T03:43:29;101336.59;;;7.27;68.64
46045;BME280;31781;54.094;13.428;2023-11-21T03:45:32;101340.97;;;7.28;68.56
46045;BME280;31781;54.094;13.428;2023-11-21T03:47:34;101338.25;;;7.28;69.10
46045;BME280;31781;54.094;13.428;2023-11-21T03:49:35;101347.44;;;7.27;69.10
46045;BME280;31781;54.094;13.428;2023-11-21T03:51:37;101351.16;;;7.26;68.31
46045;BME280;31781;54.094;13.428;2023-11-21T03:53:39;101347.59;;;7.26;67.39
46045;BME280;31781;54.094;13.428;2023-11-21T03:55:40;101358.41;;;7.26;67.61
46045;BME280;31781;54.094;13.428;2023-11-21T03:57:42;101359.41;;;7.25;67.47
46045;BME280;31781;54.094;13.428;2023-11-21T03:59:44;101357.75;;;7.24;67.66
46045;BME280;31781;54.094;13.428;2023-11-21T04:01:46;101363.97;;;7.24;67.55
46045;BME280;31781;54.094;13.428;2023-11-21T04:03:48;101364.19;;;7.23;67.60
46045;BME280;31781;54.094;13.428;2023-11-21T04:05:50;101356.91;;;7.23;68.05
46045;BME280;31781;54.094;13.428;2023-11-21T04:07:52;101371.28;;;7.24;68.53
46045;BME280;31781;54.094;13.428;2023-11-21T04:09:54;101366.88;;;7.23;68.06
46045;BME280;31781;54.094;13.428;2023-11-21T04:11:55;101375.16;;;7.21;67.80
46045;BME280;31781;54.094;13.428;2023-11-21T04:13:57;101372.44;;;7.21;67.66
46045;BME280;31781;54.094;13.428;2023-11-21T04:15:59;101372.66;;;7.20;68.40
46045;BME280;31781;54.094;13.428;2023-11-21T04:18:01;101382.44;;;7.21;68.15
46045;BME280;31781;54.094;13.428;2023-11-21T04:20:04;101378.91;;;7.20;68.64
46045;BME280;31781;54.094;13.428;2023-11-21T04:22:06;101381.63;;;7.20;68.92
46045;BME280;31781;54.094;13.428;2023-11-21T04:24:07;101381.63;;;7.20;68.76
46045;BME280;31781;54.094;13.428;2023-11-21T04:26:09;101383.28;;;7.21;69.06
46045;BME280;31781;54.094;13.428;2023-11-21T04:28:10;101382.44;;;7.21;69.36
46045;BME280;31781;54.094;13.428;2023-11-21T04:30:13;101392.44;;;7.20;69.33
46045;BME280;31781;54.094;13.428;2023-11-21T04:32:15;101381.63;;;7.20;69.37
46045;BME280;31781;54.094;13.428;2023-11-21T04:34:18;101390.56;;;7.21;69.48
46045;BME280;31781;54.094;13.428;2023-11-21T04:36:20;101394.09;;;7.21;68.48
46045;BME280;31781;54.094;13.428;2023-11-21T04:38:21;101398.84;;;7.19;68.74
46045;BME280;31781;54.094;13.428;2023-11-21T04:40:23;101399.72;;;7.20;68.74
46045;BME280;31781;54.094;13.428;2023-11-21T04:42:24;101405.97;;;7.20;68.54
46045;BME280;31781;54.094;13.428;2023-11-21T04:44:26;101391.59;;;7.20;68.15
46045;BME280;31781;54.094;13.428;2023-11-21T04:46:27;101398.66;;;7.21;68.84
46045;BME280;31781;54.094;13.428;2023-11-21T04:48:29;101397.84;;;7.20;68.66
46045;BME280;31781;54.094;13.428;2023-11-21T04:50:32;101405.13;;;7.20;68.70
46045;BME280;31781;54.094;13.428;2023-11-21T04:52:33;101410.53;;;7.20;68.31
46045;BME280;31781;54.094;13.428;2023-11-21T04:54:35;101416.94;;;7.19;68.09
46045;BME280;31781;54.094;13.428;2023-11-21T04:56:37;101419.66;;;7.19;68.69
46045;BME280;31781;54.094;13.428;2023-11-21T04:58:39;101421.50;;;7.18;68.16
46045;BME280;31781;54.094;13.428;2023-11-21T05:00:40;101434.03;;;7.19;68.42
46045;BME280;31781;54.094;13.428;2023-11-21T05:02:42;101436.75;;;7.19;68.65
46045;BME280;31781;54.094;13.428;2023-11-21T05:04:44;101438.75;;;7.17;68.95
46045;BME280;31781;54.094;13.428;2023-11-21T05:06:47;101442.31;;;7.18;68.72
46045;BME280;31781;54.094;13.428;2023-11-21T05:08:48;101444.19;;;7.17;68.46
46045;BME280;31781;54.094;13.428;2023-11-21T05:10:50;101446.03;;;7.17;68.49
46045;BME280;31781;54.094;13.428;2023-11-21T05:12:51;101444.19;;;7.17;68.49
46045;BME280;31781;54.094;13.428;2023-11-21T05:14:53;101449.78;;;7.16;68.59
46045;BME280;31781;54.094;13.428;2023-11-21T05:16:55;101438.94;;;7.16;68.39
46045;BME280;31781;54.094;13.428;2023-11-21T05:18:56;101456.19;;;7.15;68.37
46045;BME280;31781;54.094;13.428;2023-11-21T05:20:58;101461.59;;;7.15;68.69
46045;BME280;31781;54.094;13.428;2023-11-21T05:23:01;101458.06;;;7.14;68.56
46045;BME280;31781;54.094;13.428;2023-11-21T05:25:05;101467.38;;;7.12;68.55
46045;BME280;31781;54.094;13.428;2023-11-21T05:27:07;101464.81;;;7.10;68.88
46045;BME280;31781;54.094;13.428;2023-11-21T05:29:08;101488.50;;;7.08;68.39
46045;BME280;31781;54.094;13.428;2023-11-21T05:31:10;101484.94;;;7.08;69.32
46045;BME280;31781;54.094;13.428;2023-11-21T05:33:17;101499.66;;;7.05;68.48
46045;BME280;31781;54.094;13.428;2023-11-21T05:35:19;101494.41;;;7.04;69.09
46045;BME280;31781;54.094;13.428;2023-11-21T05:37:20;101502.69;;;7.02;68.59
46045;BME280;31781;54.094;13.428;2023-11-21T05:39:23;101497.47;;;7.01;69.24
46045;BME280;31781;54.094;13.428;2023-11-21T05:41:25;101494.91;;;6.99;69.50
46045;BME280;31781;54.094;13.428;2023-11-21T05:43:27;101499.47;;;6.99;69.62
46045;BME280;31781;54.094;13.428;2023-11-21T05:45:28;101508.44;;;6.99;69.45
46045;BME280;31781;54.094;13.428;2023-11-21T05:47:30;101507.78;;;6.97;69.36
46045;BME280;31781;54.094;13.428;2023-11-21T05:49:32;101514.19;;;6.96;69.58
46045;BME280;31781;54.094;13.428;2023-11-21T05:51:33;101511.66;;;6.95;69.45
46045;BME280;31781;54.094;13.428;2023-11-21T05:53:35;101515.38;;;6.94;69.48
46045;BME280;31781;54.094;13.428;2023-11-21T05:55:38;101521.78;;;6.93;69.74
46045;BME280;31781;54.094;13.428;2023-11-21T05:57:41;101514.53;;;6.93;69.89
46045;BME280;31781;54.094;13.428;2023-11-21T05:59:43;101513.66;;;6.93;69.72
46045;BME280;31781;54.094;13.428;2023-11-21T06:01:44;101516.53;;;6.91;69.70
46045;BME280;31781;54.094;13.428;2023-11-21T06:03:46;101521.28;;;6.89;70.30
46045;BME280;31781;54.094;13.428;2023-11-21T06:05:47;101534.81;;;6.89;70.22
46045;BME280;31781;54.094;13.428;2023-11-21T06:07:49;101524.97;;;6.88;69.66
46045;BME280;31781;54.094;13.428;2023-11-21T06:09:51;101530.41;;;6.88;69.74
46045;BME280;31781;54.094;13.428;2023-11-21T06:11:54;101524.13;;;6.88;69.87
46045;BME280;31781;54.094;13.428;2023-11-21T06:13:55;101531.75;;;6.84;69.58
46045;BME280;31781;54.094;13.428;2023-11-21T06:15:57;101530.72;;;6.85;69.70
46045;BME280;31781;54.094;13.428;2023-11-21T06:17:59;101537.16;;;6.84;69.60
46045;BME280;31781;54.094;13.428;2023-11-21T06:20:01;101532.59;;;6.84;69.69
46045;BME280;31781;54.094;13.428;2023-11-21T06:22:02;101545.44;;;6.82;69.97
46045;BME280;31781;54.094;13.428;2023-11-21T06:24:05;101543.75;;;6.81;70.02
46045;BME280;31781;54.094;13.428;2023-11-21T06:26:06;101552.72;;;6.82;69.62
46045;BME280;31781;54.094;13.428;2023-11-21T06:28:09;101546.59;;;6.80;69.87
46045;BME280;31781;54.094;13.428;2023-11-21T06:30:12;101556.41;;;6.81;69.73
46045;BME280;31781;54.094;13.428;2023-11-21T06:32:14;101562.00;;;6.79;69.80
46045;BME280;31781;54.094;13.428;2023-11-21T06:34:15;101573.84;;;6.78;69.76
46045;BME280;31781;54.094;13.428;2023-11-21T06:36:17;101570.44;;;6.76;69.51
46045;BME280;31781;54.094;13.428;2023-11-21T06:38:19;101576.69;;;6.77;70.27
46045;BME280;31781;54.094;13.428;2023-11-21T06:40:21;101585.84;;;6.76;70.67
46045;BME280;31781;54.094;13.428;2023-11-21T06:42:23;101589.53;;;6.75;70.61
46045;BME280;31781;54.094;13.428;2023-11-21T06:44:26;101594.09;;;6.74;70.83
46045;BME280;31781;54.094;13.428;2023-11-21T06:46:27;101596.94;;;6.73;70.85
46045;BME280;31781;54.094;13.428;2023-11-21T06:48:29;101605.25;;;6.71;70.47
46045;BME280;31781;54.094;13.428;2023-11-21T06:50:30;101604.53;;;6.69;70.87
46045;BME280;31781;54.094;13.428;2023-11-21T06:52:32;101604.88;;;6.66;71.36
46045;BME280;31781;54.094;13.428;2023-11-21T06:54:34;101610.47;;;6.65;70.76
46045;BME280;31781;54.094;13.428;2023-11-21T06:56:35;101618.72;;;6.63;71.14
46045;BME280;31781;54.094;13.428;2023-11-21T06:58:37;101627.00;;;6.62;71.45
46045;BME280;31781;54.094;13.428;2023-11-21T07:00:40;101629.03;;;6.60;71.92
46045;BME280;31781;54.094;13.428;2023-11-21T07:02:41;101620.91;;;6.60;72.06
46045;BME280;31781;54.094;13.428;2023-11-21T07:04:43;101619.38;;;6.57;72.54
46045;BME280;31781;54.094;13.428;2023-11-21T07:06:45;101622.09;;;6.57;72.36
46045;BME280;31781;54.094;13.428;2023-11-21T07:08:47;101622.25;;;6.56;72.61
46045;BME280;31781;54.094;13.428;2023-11-21T07:10:48;101625.94;;;6.55;72.37
46045;BME280;31781;54.094;13.428;2023-11-21T07:12:50;101632.38;;;6.54;72.73
46045;BME280;31781;54.094;13.428;2023-11-21T07:14:51;101636.09;;;6.53;73.09
46045;BME280;31781;54.094;13.428;2023-11-21T07:16:54;101629.81;;;6.52;73.03
46045;BME280;31781;54.094;13.428;2023-11-21T07:18:56;101631.69;;;6.52;72.76
46045;BME280;31781;54.094;13.428;2023-11-21T07:20:57;101633.53;;;6.51;72.46
46045;BME280;31781;54.094;13.428;2023-11-21T07:22:59;101642.69;;;6.50;72.87
46045;BME280;31781;54.094;13.428;2023-11-21T07:25:01;101642.81;;;6.49;72.96
46045;BME280;31781;54.094;13.428;2023-11-21T07:27:03;101637.56;;;6.47;73.32
46045;BME280;31781;54.094;13.428;2023-11-21T07:29:04;101643.81;;;6.48;72.29
46045;BME280;31781;54.094;13.428;2023-11-21T07:31:06;101649.41;;;6.46;72.81
46045;BME280;31781;54.094;13.428;2023-11-21T07:33:09;101654.97;;;6.45;72.65
46045;BME280;31781;54.094;13.428;2023-11-21T07:35:10;101649.56;;;6.45;72.07
46045;BME280;31781;54.094;13.428;2023-11-21T07:37:12;101664.06;;;6.44;71.92
46045;BME280;31781;54.094;13.428;2023-11-21T07:39:14;101664.25;;;6.42;71.39
46045;BME280;31781;54.094;13.428;2023-11-21T07:41:16;101663.53;;;6.40;72.27
46045;BME280;31781;54.094;13.428;2023-11-21T07:43:31;101665.41;;;6.40;72.21
46045;BME280;31781;54.094;13.428;2023-11-21T07:45:32;101669.13;;;6.39;71.72
46045;BME280;31781;54.094;13.428;2023-11-21T07:47:34;101676.38;;;6.38;72.51
46045;BME280;31781;54.094;13.428;2023-11-21T07:49:37;101682.78;;;6.37;72.15
46045;BME280;31781;54.094;13.428;2023-11-21T07:51:39;101684.63;;;6.36;72.02
46045;BME280;31781;54.094;13.428;2023-11-21T07:53:41;101692.75;;;6.36;72.58
46045;BME280;31781;54.094;13.428;2023-11-21T07:55:42;101686.50;;;6.36;72.77
46045;BME280;31781;54.094;13.428;2023-11-21T07:57:44;101690.91;;;6.37;72.15
46045;BME280;31781;54.094;13.428;2023-11-21T07:59:46;101701.72;;;6.37;72.29
46045;BME280;31781;54.094;13.428;2023-11-21T08:01:47;101698.16;;;6.36;72.49
46045;BME280;31781;54.094;13.428;2023-11-21T08:03:49;101700.72;;;6.38;72.10
46045;BME280;31781;54.094;13.428;2023-11-21T08:05:52;101700.84;;;6.36;71.81
46045;BME280;31781;54.094;13.428;2023-11-21T08:07:53;101707.81;;;6.39;72.04
46045;BME280;31781;54.094;13.428;2023-11-21T08:09:55;101714.06;;;6.40;72.45
46045;BME280;31781;54.094;13.428;2023-11-21T08:11:57;101719.47;;;6.40;72.29
46045;BME280;31781;54.094;13.428;2023-11-21T08:13:58;101710.34;;;6.41;72.92
46045;BME280;31781;54.094;13.428;2023-11-21T08:16:00;101710.19;;;6.42;71.85
46045;BME280;31781;54.094;13.428;2023-11-21T08:18:02;101711.06;;;6.43;71.82
46045;BME280;31781;54.094;13.428;2023-11-21T08:20:05;101719.97;;;6.43;72.40
46045;BME280;31781;54.094;13.428;2023-11-21T08:22:08;101727.09;;;6.44;72.54
46045;BME280;31781;54.094;13.428;2023-11-21T08:24:09;101732.34;;;6.46;72.32
46045;BME280;31781;54.094;13.428;2023-11-21T08:26:11;101727.81;;;6.46;71.93
46045;BME280;31781;54.094;13.428;2023-11-21T08:28:13;101734.22;;;6.45;71.94
46045;BME280;31781;54.094;13.428;2023-11-21T08:30:15;101739.63;;;6.45;72.12
46045;BME280;31781;54.094;13.428;2023-11-21T08:32:16;101744.03;;;6.46;71.49
46045;BME280;31781;54.094;13.428;2023-11-21T08:34:18;101742.19;;;6.47;71.42
46045;BME280;31781;54.094;13.428;2023-11-21T08:36:20;101747.59;;;6.47;71.73
46045;BME280;31781;54.094;13.428;2023-11-21T08:38:22;101745.88;;;6.46;72.02
46045;BME280;31781;54.094;13.428;2023-11-21T08:40:24;101744.03;;;6.46;72.08
46045;BME280;31781;54.094;13.428;2023-11-21T08:42:26;101743.19;;;6.46;71.85
46045;BME280;31781;54.094;13.428;2023-11-21T08:44:27;101754.00;;;6.46;72.36
46045;BME280;31781;54.094;13.428;2023-11-21T08:46:29;101751.09;;;6.47;71.71
46045;BME280;31781;54.094;13.428;2023-11-21T08:48:30;101753.00;;;6.47;71.64
46045;BME280;31781;54.094;13.428;2023-11-21T08:50:32;101762.78;;;6.48;71.71
46045;BME280;31781;54.094;13.428;2023-11-21T08:52:34;101759.22;;;6.47;72.04
46045;BME280;31781;54.094;13.428;2023-11-21T08:54:37;101769.03;;;6.48;72.22
46045;BME280;31781;54.094;13.428;2023-11-21T08:56:39;101770.03;;;6.47;71.93
46045;BME280;31781;54.094;13.428;2023-11-21T08:58:41;101768.34;;;6.46;71.85
46045;BME280;31781;54.094;13.428;2023-11-21T09:00:42;101764.81;;;6.46;73.15
46045;BME280;31781;54.094;13.428;2023-11-21T09:02:44;101771.19;;;6.45;72.48
46045;BME280;31781;54.094;13.428;2023-11-21T09:04:46;101772.91;;;6.46;73.34
46045;BME280;31781;54.094;13.428;2023-11-21T09:06:49;101772.91;;;6.46;73.04
46045;BME280;31781;54.094;13.428;2023-11-21T09:08:50;101781.88;;;6.46;73.27
46045;BME280;31781;54.094;13.428;2023-11-21T09:10:54;101783.53;;;6.47;73.55
46045;BME280;31781;54.094;13.428;2023-11-21T09:12:55;101788.94;;;6.47;73.54
46045;BME280;31781;54.094;13.428;2023-11-21T09:14:57;101791.66;;;6.47;73.58
46045;BME280;31781;54.094;13.428;2023-11-21T09:16:58;101799.78;;;6.47;73.65
46045;BME280;31781;54.094;13.428;2023-11-21T09:19:00;101803.50;;;6.46;73.91
46045;BME280;31781;54.094;13.428;2023-11-21T09:21:03;101800.78;;;6.46;73.16
46045;BME280;31781;54.094;13.428;2023-11-21T09:23:05;101810.91;;;6.44;73.34
46045;BME280;31781;54.094;13.428;2023-11-21T09:25:07;101805.66;;;6.43;73.40
46045;BME280;31781;54.094;13.428;2023-11-21T09:27:10;101812.06;;;6.42;73.95
46045;BME280;31781;54.094;13.428;2023-11-21T09:29:12;101813.06;;;6.41;74.11
46045;BME280;31781;54.094;13.428;2023-11-21T09:31:14;101810.38;;;6.41;74.37
46045;BME280;31781;54.094;13.428;2023-11-21T09:33:15;101809.50;;;6.40;74.65
46045;BME280;31781;54.094;13.428;2023-11-21T09:35:17;101812.22;;;6.40;74.49
46045;BME280;31781;54.094;13.428;2023-11-21T09:37:19;101810.69;;;6.38;74.25
46045;BME280;31781;54.094;13.428;2023-11-21T09:39:20;101816.09;;;6.38;74.67
46045;BME280;31781;54.094;13.428;2023-11-21T09:41:29;101825.06;;;6.38;74.27
46045;BME280;31781;54.094;13.428;2023-11-21T09:43:36;101825.19;;;6.36;74.60
46045;BME280;31781;54.094;13.428;2023-11-21T09:45:38;101835.31;;;6.34;73.67
46045;BME280;31781;54.094;13.428;2023-11-21T09:47:42;101837.03;;;6.35;74.47
46045;BME280;31781;54.094;13.428;2023-11-21T09:49:47;101835.47;;;6.33;74.18
46045;BME280;31781;54.094;13.428;2023-11-21T09:51:50;101834.78;;;6.31;74.63
46045;BME280;31781;54.094;13.428;2023-11-21T09:53:55;101849.16;;;6.31;74.69
46045;BME280;31781;54.094;13.428;2023-11-21T09:55:58;101857.41;;;6.30;74.70
46045;BME280;31781;54.094;13.428;2023-11-21T09:58:00;101857.53;;;6.28;74.32
46045;BME280;31781;54.094;13.428;2023-11-21T10:00:04;101856.88;;;6.26;74.44
46045;BME280;31781;54.094;13.428;2023-11-21T10:02:07;101857.19;;;6.23;74.49
46045;BME280;31781;54.094;13.428;2023-11-21T10:04:09;101854.47;;;6.23;74.07
46045;BME280;31781;54.094;13.428;2023-11-21T10:06:12;101870.84;;;6.22;74.48
46045;BME280;31781;54.094;13.428;2023-11-21T10:08:14;101868.31;;;6.20;74.53
46045;BME280;31781;54.094;13.428;2023-11-21T10:10:18;101867.44;;;6.20;74.60
46045;BME280;31781;54.094;13.428;2023-11-21T10:12:19;101867.44;;;6.20;75.34
46045;BME280;31781;54.094;13.428;2023-11-21T10:14:24;101872.84;;;6.20;75.33
46045;BME280;31781;54.094;13.428;2023-11-21T10:16:28;101876.41;;;6.20;75.29
46045;BME280;31781;54.094;13.428;2023-11-21T10:18:29;101869.28;;;6.19;74.96
46045;BME280;31781;54.094;13.428;2023-11-21T10:20:32;101889.22;;;6.18;75.05
46045;BME280;31781;54.094;13.428;2023-11-21T10:22:34;101883.13;;;6.16;74.65
46045;BME280;31781;54.094;13.428;2023-11-21T10:24:35;101879.69;;;6.14;74.59
46045;BME280;31781;54.094;13.428;2023-11-21T10:26:49;101884.56;;;6.11;74.55
46045;BME280;31781;54.094;13.428;2023-11-21T10:28:55;101883.03;;;6.08;74.39
46045;BME280;31781;54.094;13.428;2023-11-21T10:30:57;101892.28;;;6.06;74.00
46045;BME280;31781;54.094;13.428;2023-11-21T10:33:00;101891.75;;;6.02;74.15
46045;BME280;31781;54.094;13.428;2023-11-21T10:35:02;101891.03;;;6.00;74.23
46045;BME280;31781;54.094;13.428;2023-11-21T10:37:11;101889.50;;;5.98;74.58
46045;BME280;31781;54.094;13.428;2023-11-21T10:39:16;101894.19;;;5.96;74.62